Time;durP1;ratioP1;P1;durP2;ratioP2;P2;SDS_P1;SDS_P2;PMS_P1;PMS_P2;Temp;Humidity;BMP_temperature;BMP_pressure;BME280_temperature;BME280_humidity;BME280_pressure;Samples;Min_cycle;Max_cycle;Signal;HPM_P1;HPM_P2
2022/11/09 00:01:26;;;;;;;8.38;1.67;;;;;;;13.86;81.27;100532.13;4997855;28;20681;-64
2022/11/09 00:03:56;;;;;;;5.75;1.40;;;;;;;13.85;81.27;100539.03;5001310;28;20033;-64
2022/11/09 00:06:23;;;;;;;6.22;1.70;;;;;;;13.84;81.26;100536.44;4998374;28;20395;-64
2022/11/09 00:08:49;;;;;;;8.30;1.90;;;;;;;13.84;81.13;100542.47;5002221;28;20164;-64
2022/11/09 00:11:15;;;;;;;8.70;1.80;;;;;;;13.85;81.28;100544.19;5001415;28;20025;-64
2022/11/09 00:13:42;;;;;;;6.63;1.83;;;;;;;13.85;81.55;100535.56;5002309;28;20038;-64
2022/11/09 00:16:09;;;;;;;6.97;1.80;;;;;;;13.87;81.24;100533.84;4999317;28;20026;-64
2022/11/09 00:18:36;;;;;;;10.55;1.70;;;;;;;13.89;81.12;100527.88;5001738;28;20030;-64
2022/11/09 00:21:09;;;;;;;5.30;1.83;;;;;;;13.92;81.08;100529.59;5000175;28;20079;-64
2022/11/09 00:23:35;;;;;;;5.78;2.03;;;;;;;13.88;81.59;100535.59;4999407;28;20033;-64
2022/11/09 00:26:06;;;;;;;5.07;1.52;;;;;;;13.89;81.39;100538.22;5000003;28;20426;-64
2022/11/09 00:28:32;;;;;;;6.53;1.85;;;;;;;13.89;81.36;100529.56;4998366;28;20044;-64
2022/11/09 00:31:02;;;;;;;6.53;1.90;;;;;;;13.87;81.62;100529.56;4999305;28;20026;-64
2022/11/09 00:33:27;;;;;;;4.88;1.80;;;;;;;13.87;81.65;100532.13;4998206;28;20037;-64
2022/11/09 00:35:53;;;;;;;6.03;1.60;;;;;;;13.88;81.72;100528.69;4999051;28;20041;-64
2022/11/09 00:38:18;;;;;;;8.65;1.95;;;;;;;13.89;82.19;100529.56;4998194;28;20029;-64
2022/11/09 00:40:44;;;;;;;8.50;1.58;;;;;;;13.89;82.47;100530.47;4999904;28;20095;-64
2022/11/09 00:43:09;;;;;;;7.15;1.73;;;;;;;13.90;82.38;100524.44;5001010;28;20408;-64
2022/11/09 00:45:35;;;;;;;7.38;1.40;;;;;;;13.90;82.51;100524.44;4997342;28;20033;-64
2022/11/09 00:48:01;;;;;;;13.43;1.98;;;;;;;13.91;82.72;100531.31;4999844;28;20049;-64
2022/11/09 00:50:26;;;;;;;7.00;1.67;;;;;;;13.91;82.85;100527.88;4999168;28;20500;-64
2022/11/09 00:52:51;;;;;;;6.93;1.73;;;;;;;13.88;82.91;100514.91;4998521;28;20076;-64
2022/11/09 00:55:19;;;;;;;8.05;2.00;;;;;;;13.87;82.98;100532.13;4997464;28;20034;-64
2022/11/09 00:57:48;;;;;;;5.68;1.83;;;;;;;13.84;83.00;100514.03;5001767;28;20061;-64
2022/11/09 01:00:16;;;;;;;4.05;1.60;;;;;;;13.88;82.92;100526.13;5000706;28;20026;-64
2022/11/09 01:02:42;;;;;;;8.85;1.90;;;;;;;13.81;83.01;100519.16;4999873;28;20049;-64
2022/11/09 01:05:07;;;;;;;5.88;1.70;;;;;;;13.85;82.88;100526.09;4997722;28;20191;-64
2022/11/09 01:07:32;;;;;;;5.60;1.70;;;;;;;13.82;82.98;100517.44;4999738;28;20032;-64
2022/11/09 01:09:58;;;;;;;6.60;1.77;;;;;;;13.80;83.17;100522.59;4996944;28;20530;-64
2022/11/09 01:12:23;;;;;;;6.53;1.70;;;;;;;13.83;83.09;100524.34;4997850;28;20693;-64
2022/11/09 01:14:49;;;;;;;7.65;1.70;;;;;;;13.82;82.78;100523.47;4999583;28;20052;-64
2022/11/09 01:17:14;;;;;;;7.22;1.95;;;;;;;13.83;83.20;100529.50;5001394;28;20088;-64
2022/11/09 01:19:39;;;;;;;5.47;1.80;;;;;;;13.82;83.23;100531.22;5001838;28;20026;-64
2022/11/09 01:22:05;;;;;;;3.30;1.50;;;;;;;13.84;82.94;100533.84;4998562;28;20026;-64
2022/11/09 01:24:30;;;;;;;7.10;1.98;;;;;;;13.84;82.83;100539.00;4999512;28;20037;-64
2022/11/09 01:26:55;;;;;;;8.88;1.60;;;;;;;13.85;82.80;100539.03;5003643;28;20671;-64
2022/11/09 01:29:21;;;;;;;6.30;1.90;;;;;;;13.84;82.75;100539.00;5004042;28;20034;-63
2022/11/09 01:31:47;;;;;;;5.22;1.63;;;;;;;13.85;82.74;100539.03;5003250;28;20069;-64
2022/11/09 01:34:13;;;;;;;8.98;1.60;;;;;;;13.84;82.54;100550.22;5006139;28;20041;-64
2022/11/09 01:36:38;;;;;;;6.75;1.67;;;;;;;13.86;82.37;100547.63;5005443;28;20041;-64
2022/11/09 01:39:03;;;;;;;6.30;1.70;;;;;;;13.81;82.34;100542.41;4999856;28;20041;-64
2022/11/09 01:41:29;;;;;;;7.35;1.60;;;;;;;13.84;82.37;100547.63;4984249;28;20036;-64
2022/11/09 01:44:05;;;;;;;8.43;2.00;;;;;;;13.87;82.39;100547.66;5001579;28;20042;-64
2022/11/09 01:46:41;;;;;;;4.63;1.40;;;;;;;13.89;82.52;100553.72;5005083;28;20564;-64
2022/11/09 01:49:31;;;;;;;5.07;1.70;;;;;;;13.86;82.42;100550.22;5006553;28;20032;-64
2022/11/09 01:52:03;;;;;;;7.63;1.65;;;;;;;13.83;82.24;100540.75;5002988;28;20057;-64
2022/11/09 01:54:34;;;;;;;8.45;2.22;;;;;;;13.84;82.06;100547.63;5005066;28;20034;-64
2022/11/09 01:57:05;;;;;;;8.95;1.85;;;;;;;13.82;82.10;100538.13;5004114;28;20117;-64
2022/11/09 01:59:36;;;;;;;9.68;1.75;;;;;;;13.82;81.69;100541.56;5006074;28;20022;-64
2022/11/09 02:02:03;;;;;;;7.68;1.85;;;;;;;13.81;81.83;100529.50;5003953;28;20025;-64
2022/11/09 02:04:37;;;;;;;6.55;1.58;;;;;;;13.78;81.49;100529.50;5005954;28;20037;-64
2022/11/09 02:07:03;;;;;;;4.72;1.55;;;;;;;13.76;81.62;100538.91;5004080;28;20101;-64
2022/11/09 02:09:38;;;;;;;10.00;1.70;;;;;;;13.77;81.76;100539.78;5007985;28;20417;-64
2022/11/09 02:12:05;;;;;;;5.30;1.60;;;;;;;13.73;81.43;100536.31;5004720;28;20053;-64
2022/11/09 02:14:32;;;;;;;5.78;1.90;;;;;;;13.71;81.87;100544.88;5005744;28;20038;-64
2022/11/09 02:16:58;;;;;;;6.32;1.83;;;;;;;13.71;81.56;100530.28;5003434;28;20109;-64
2022/11/09 02:19:23;;;;;;;5.18;1.50;;;;;;;13.71;81.30;100545.78;5006739;28;20152;-64
2022/11/09 02:21:49;;;;;;;7.82;1.80;;;;;;;13.71;81.30;100544.88;5006673;28;20179;-65
2022/11/09 02:24:14;;;;;;;7.03;1.85;;;;;;;13.66;81.26;100543.16;5005662;28;20057;-64
2022/11/09 02:26:46;;;;;;;8.32;1.65;;;;;;;13.69;81.66;100547.47;4989037;28;20058;-64
2022/11/09 02:29:15;;;;;;;5.55;1.60;;;;;;;13.68;81.62;100544.00;5004980;28;20032;-64
2022/11/09 02:31:45;;;;;;;8.05;1.40;;;;;;;13.69;81.51;100542.28;4988323;28;20431;-64
2022/11/09 02:34:14;;;;;;;8.10;1.77;;;;;;;13.67;81.43;100551.75;5004450;28;20062;-64
2022/11/09 02:36:39;;;;;;;6.38;1.42;;;;;;;13.68;81.43;100561.25;4998072;28;20389;-64
2022/11/09 02:39:05;;;;;;;9.57;1.83;;;;;;;13.68;81.51;100553.50;5001779;28;20065;-63
2022/11/09 02:41:34;;;;;;;4.18;1.40;;;;;;;13.68;81.76;100558.66;5002030;28;20033;-64
2022/11/09 02:44:00;;;;;;;7.05;1.67;;;;;;;13.67;81.28;100549.19;5000275;28;20062;-64
2022/11/09 02:46:36;;;;;;;5.70;1.70;;;;;;;13.71;81.26;100550.94;4999689;28;20107;-64
2022/11/09 02:49:03;;;;;;;7.35;1.88;;;;;;;13.67;81.40;100541.44;5001753;28;20074;-64
2022/11/09 02:51:29;;;;;;;8.90;1.70;;;;;;;13.67;81.57;100533.69;4999163;28;20060;-64
2022/11/09 02:53:54;;;;;;;10.35;1.80;;;;;;;13.69;81.13;100538.00;5003083;28;20030;-64
2022/11/09 02:56:20;;;;;;;7.13;1.58;;;;;;;13.70;81.21;100536.28;5001283;28;20477;-64
2022/11/09 02:58:45;;;;;;;11.48;1.70;;;;;;;13.69;81.06;100529.38;5000441;28;20145;-64
2022/11/09 03:01:11;;;;;;;6.10;1.52;;;;;;;13.71;80.84;100537.13;4999651;28;20030;-64
2022/11/09 03:03:36;;;;;;;7.55;1.48;;;;;;;13.68;81.27;100535.41;5000925;28;20053;-64
2022/11/09 03:06:02;;;;;;;7.90;1.70;;;;;;;13.69;80.62;100531.97;4997053;28;20102;-64
2022/11/09 03:08:28;;;;;;;5.45;1.50;;;;;;;13.69;79.91;100540.56;5001023;28;20554;-64
2022/11/09 03:10:53;;;;;;;12.50;1.73;;;;;;;13.71;80.34;100545.78;4985502;28;20026;-64
2022/11/09 03:13:19;;;;;;;7.70;1.40;;;;;;;13.71;80.34;100558.72;5002255;28;20042;-64
2022/11/09 03:15:44;;;;;;;6.82;1.70;;;;;;;13.67;79.96;100556.94;5001345;28;20022;-64
2022/11/09 03:18:10;;;;;;;10.18;2.03;;;;;;;13.64;79.85;100560.31;4999830;28;20032;-64
2022/11/09 03:20:35;;;;;;;6.80;1.52;;;;;;;13.70;79.57;100567.28;5002364;28;20084;-64
2022/11/09 03:23:00;;;;;;;5.65;1.40;;;;;;;13.69;79.87;100579.34;5001415;28;20038;-64
2022/11/09 03:25:26;;;;;;;9.35;1.50;;;;;;;13.69;79.81;100573.31;4995302;28;20761;-64
2022/11/09 03:28:00;;;;;;;9.07;1.55;;;;;;;13.71;79.49;100571.63;4998357;28;20048;-64
2022/11/09 03:30:26;;;;;;;6.35;1.30;;;;;;;13.69;79.13;100575.88;4998142;28;20036;-64
2022/11/09 03:32:59;;;;;;;7.35;1.45;;;;;;;13.66;79.67;100568.97;5001423;28;20033;-64
2022/11/09 03:35:26;;;;;;;6.78;1.90;;;;;;;13.68;79.66;100576.75;5001366;28;20049;-64
2022/11/09 03:37:51;;;;;;;6.88;1.38;;;;;;;13.71;79.74;100586.22;4999892;28;20558;-64
2022/11/09 03:40:17;;;;;;;9.57;2.28;;;;;;;13.68;79.58;100584.50;4999765;28;20018;-64
2022/11/09 03:42:44;;;;;;;6.60;1.73;;;;;;;13.65;79.52;100592.19;5000358;28;20046;-64
2022/11/09 03:45:10;;;;;;;8.65;1.52;;;;;;;13.65;79.34;100587.03;5002585;28;20493;-64
2022/11/09 03:47:39;;;;;;;7.15;1.40;;;;;;;13.65;79.67;100597.38;4999959;28;20113;-64
2022/11/09 03:50:05;;;;;;;9.60;1.67;;;;;;;13.68;79.48;100602.59;4999877;28;20141;-64
2022/11/09 03:52:30;;;;;;;5.78;1.42;;;;;;;13.65;79.71;100607.69;4998543;28;20045;-64
2022/11/09 03:54:56;;;;;;;6.18;1.60;;;;;;;13.64;79.51;100611.13;4998460;28;20040;-64
2022/11/09 03:57:21;;;;;;;8.30;2.00;;;;;;;13.62;79.82;100612.84;4984054;28;20040;-64
2022/11/09 03:59:46;;;;;;;8.32;1.70;;;;;;;13.60;80.09;100619.72;4998756;28;20562;-64
2022/11/09 04:02:12;;;;;;;7.63;1.58;;;;;;;13.59;80.36;100623.13;4969312;28;20038;-64
2022/11/09 04:04:37;;;;;;;10.18;1.73;;;;;;;13.62;80.11;100626.63;4999832;28;20030;-64
2022/11/09 04:07:02;;;;;;;11.73;1.70;;;;;;;13.58;80.32;100626.56;4977138;28;20034;-64
2022/11/09 04:09:28;;;;;;;11.25;2.20;;;;;;;13.59;80.39;100628.28;4998626;28;20120;-64
2022/11/09 04:11:53;;;;;;;8.88;1.88;;;;;;;13.57;80.51;100630.00;4997458;28;20088;-64
2022/11/09 04:14:18;;;;;;;7.43;1.77;;;;;;;13.56;80.60;100625.69;5001554;28;20030;-64
2022/11/09 04:16:44;;;;;;;8.70;1.60;;;;;;;13.60;80.58;100638.66;4999791;28;20089;-64
2022/11/09 04:19:09;;;;;;;8.35;1.65;;;;;;;13.51;80.96;100632.50;4998757;28;20499;-64
2022/11/09 04:21:34;;;;;;;10.57;1.75;;;;;;;13.52;80.90;100629.06;4978753;28;20061;-64
2022/11/09 04:24:00;;;;;;;5.28;1.40;;;;;;;13.54;80.98;100637.72;4999735;28;20034;-64
2022/11/09 04:26:25;;;;;;;8.00;1.90;;;;;;;13.50;80.77;100641.97;4996961;28;20030;-64
2022/11/09 04:28:50;;;;;;;16.13;2.75;;;;;;;13.47;81.31;100648.81;4999636;28;20040;-64
2022/11/09 04:31:16;;;;;;;10.07;1.90;;;;;;;13.47;81.59;100653.97;4979553;28;20042;-64
2022/11/09 04:33:41;;;;;;;8.07;1.70;;;;;;;13.46;81.45;100652.25;4998905;28;20117;-64
2022/11/09 04:36:07;;;;;;;8.23;1.90;;;;;;;13.46;81.38;100652.25;4998400;28;20038;-64
2022/11/09 04:38:32;;;;;;;9.95;1.90;;;;;;;13.48;81.44;100648.00;4998365;28;20211;-64
2022/11/09 04:41:03;;;;;;;11.07;1.85;;;;;;;13.50;81.63;100654.91;4998194;28;20029;-64
2022/11/09 04:43:28;;;;;;;8.95;1.85;;;;;;;13.48;81.50;100655.75;4998627;28;20125;-64
2022/11/09 04:45:54;;;;;;;9.05;1.65;;;;;;;13.47;81.44;100659.13;4999888;28;20040;-64
2022/11/09 04:48:19;;;;;;;11.20;2.00;;;;;;;13.46;81.68;100654.81;4997419;28;20052;-64
2022/11/09 04:50:45;;;;;;;9.95;1.83;;;;;;;13.43;81.56;100657.38;4982287;28;20041;-64
2022/11/09 04:53:12;;;;;;;10.60;1.58;;;;;;;13.41;82.16;100654.78;4996500;28;20041;-64
2022/11/09 04:55:39;;;;;;;11.32;1.70;;;;;;;13.39;81.81;100648.72;4966037;28;20036;-64
2022/11/09 04:58:04;;;;;;;9.75;1.67;;;;;;;13.41;81.59;100649.63;4997709;28;20045;-64
2022/11/09 05:00:30;;;;;;;12.38;2.00;;;;;;;13.37;81.90;100643.53;4995378;28;20038;-64
2022/11/09 05:03:04;;;;;;;8.60;1.67;;;;;;;13.38;81.52;100644.41;4996625;28;20034;-64
2022/11/09 05:05:29;;;;;;;10.68;2.15;;;;;;;13.38;81.90;100644.41;4997677;28;20058;-64
2022/11/09 05:07:55;;;;;;;9.32;1.80;;;;;;;13.33;81.92;100654.66;4998472;28;20058;-64
2022/11/09 05:10:21;;;;;;;10.18;1.67;;;;;;;13.33;82.08;100657.25;4997734;28;20029;-64
2022/11/09 05:12:46;;;;;;;7.13;1.70;;;;;;;13.33;82.04;100657.25;5000012;28;20518;-64
2022/11/09 05:15:12;;;;;;;11.98;2.00;;;;;;;13.35;81.85;100660.75;4997880;28;20061;-64
2022/11/09 05:17:37;;;;;;;12.18;2.03;;;;;;;13.30;82.16;100652.06;5000854;28;20037;-64
2022/11/09 05:20:03;;;;;;;8.73;1.77;;;;;;;13.31;82.12;100655.50;4982977;28;20791;-64
2022/11/09 05:25:12;;;;;;;9.32;1.90;;;;;;;13.27;82.29;100651.13;4999162;28;20057;-64
2022/11/09 05:27:38;;;;;;;9.68;1.75;;;;;;;13.23;82.49;100647.66;5001436;28;20038;-64
2022/11/09 05:30:03;;;;;;;8.90;1.70;;;;;;;13.22;82.31;100651.06;4997963;28;20483;-64
2022/11/09 05:32:29;;;;;;;11.30;1.85;;;;;;;13.20;82.53;100645.00;4997988;28;20038;-64
2022/11/09 05:34:54;;;;;;;9.07;1.65;;;;;;;13.22;82.19;100647.63;4999906;28;20034;-64
2022/11/09 05:37:21;;;;;;;9.43;1.90;;;;;;;13.19;82.54;100652.72;4999879;28;20172;-64
2022/11/09 05:39:46;;;;;;;13.32;2.22;;;;;;;13.12;82.88;100656.94;4998414;28;20033;-64
2022/11/09 05:42:12;;;;;;;7.82;1.85;;;;;;;13.14;82.76;100652.66;4998000;28;20042;-64
2022/11/09 05:44:37;;;;;;;7.13;1.77;;;;;;;13.14;82.77;100650.06;4997868;28;20059;-64
2022/11/09 05:47:02;;;;;;;15.40;2.80;;;;;;;13.14;82.67;100660.41;5000224;28;20120;-64
2022/11/09 05:49:28;;;;;;;10.85;1.77;;;;;;;13.12;82.77;100651.78;5000428;28;20026;-64
2022/11/09 05:51:53;;;;;;;11.50;1.92;;;;;;;13.08;82.86;100655.16;4982876;28;20145;-64
2022/11/09 05:54:18;;;;;;;8.10;1.90;;;;;;;13.11;82.73;100657.78;4982516;28;20061;-64
2022/11/09 05:56:44;;;;;;;8.25;2.35;;;;;;;13.10;82.79;100653.44;4998690;28;20037;-64
2022/11/09 05:59:09;;;;;;;13.90;2.17;;;;;;;13.08;82.85;100656.00;4997768;28;20133;-64
2022/11/09 06:01:34;;;;;;;14.57;1.63;;;;;;;13.07;82.84;100651.69;4980075;28;20080;-64
2022/11/09 06:04:00;;;;;;;9.57;1.77;;;;;;;13.05;82.85;100648.25;5000437;28;20511;-64
2022/11/09 06:06:25;;;;;;;10.63;1.95;;;;;;;13.05;82.79;100649.94;5000188;28;20058;-64
2022/11/09 06:08:51;;;;;;;11.20;2.03;;;;;;;13.04;83.08;100659.41;5001921;28;20053;-64
2022/11/09 06:11:16;;;;;;;10.57;1.80;;;;;;;13.07;82.89;100661.16;4999583;28;20120;-64
2022/11/09 06:13:41;;;;;;;10.07;1.90;;;;;;;13.01;82.95;100663.66;5001943;28;20033;-64
2022/11/09 06:16:08;;;;;;;7.10;1.83;;;;;;;13.03;83.11;100661.94;5002722;28;20140;-64
2022/11/09 06:18:34;;;;;;;8.98;1.73;;;;;;;13.03;83.18;100667.09;5004182;28;20022;-64
2022/11/09 06:21:01;;;;;;;12.00;1.85;;;;;;;12.99;83.32;100666.22;5006415;28;20041;-64
2022/11/09 06:23:28;;;;;;;10.07;2.05;;;;;;;12.98;83.29;100668.75;5003711;28;20112;-64
2022/11/09 06:25:57;;;;;;;9.75;2.20;;;;;;;12.96;83.70;100670.44;5005556;28;20041;-64
2022/11/09 06:28:23;;;;;;;8.07;1.73;;;;;;;12.98;83.09;100682.53;5006191;28;20099;-64
2022/11/09 06:30:48;;;;;;;9.48;1.77;;;;;;;12.95;83.66;100676.47;5002537;28;20021;-64
2022/11/09 06:33:13;;;;;;;10.02;2.20;;;;;;;12.96;83.49;100675.59;5003950;28;20030;-64
2022/11/09 06:35:39;;;;;;;11.52;2.00;;;;;;;12.88;83.67;100671.19;4989904;28;20041;-64
2022/11/09 06:38:05;;;;;;;7.82;1.70;;;;;;;12.85;83.89;100670.28;5005303;28;20034;-64
2022/11/09 06:40:30;;;;;;;12.52;2.13;;;;;;;12.89;83.86;100683.25;5004077;28;20045;-64
2022/11/09 06:42:59;;;;;;;11.50;2.00;;;;;;;12.86;83.89;100683.22;4987425;28;20041;-64
2022/11/09 06:45:25;;;;;;;;;;;;;;;13.05;83.07;100686.97;5002102;28;20030;-64
2022/11/09 06:47:55;;;;;;;11.90;1.83;;;;;;;12.91;83.91;100680.69;5005068;28;19917;-64
2022/11/09 06:50:20;;;;;;;13.45;2.30;;;;;;;12.90;84.05;100681.53;4999566;28;20047;-64
2022/11/09 06:52:45;;;;;;;10.40;1.85;;;;;;;12.90;84.02;100686.69;5004026;28;20033;-64
2022/11/09 06:55:11;;;;;;;8.77;1.70;;;;;;;12.89;84.21;100678.09;5002537;28;20037;-64
2022/11/09 06:57:36;;;;;;;9.60;1.92;;;;;;;12.88;84.30;100688.41;5003775;28;20075;-64
2022/11/09 07:00:03;;;;;;;9.15;1.83;;;;;;;12.85;84.42;100681.47;5001420;28;20030;-64
2022/11/09 07:02:28;;;;;;;11.68;1.85;;;;;;;12.86;84.36;100684.91;5004932;28;20145;-64
2022/11/09 07:04:54;;;;;;;9.38;2.03;;;;;;;12.84;84.55;100695.22;5002812;28;20559;-64
2022/11/09 07:07:19;;;;;;;12.57;1.80;;;;;;;12.87;84.41;100686.66;5005096;28;20040;-64
2022/11/09 07:09:45;;;;;;;10.10;1.98;;;;;;;12.85;84.51;100696.09;5002153;28;20564;-64
2022/11/09 07:12:11;;;;;;;14.93;2.20;;;;;;;12.81;84.73;100695.19;5004381;28;20029;-64
2022/11/09 07:14:36;;;;;;;11.32;1.83;;;;;;;12.82;84.58;100703.78;5004869;28;20401;-64
2022/11/09 07:17:01;;;;;;;9.05;1.98;;;;;;;12.83;84.69;100705.53;5002541;28;20045;-64
2022/11/09 07:19:28;;;;;;;13.75;2.25;;;;;;;12.89;84.56;100706.47;5002552;28;20041;-64
2022/11/09 07:21:54;;;;;;;6.88;1.65;;;;;;;12.84;84.55;100700.38;5002587;28;20050;-64
2022/11/09 07:24:20;;;;;;;10.27;1.90;;;;;;;12.84;84.63;100713.28;5003664;28;20079;-64
2022/11/09 07:26:47;;;;;;;10.90;1.83;;;;;;;12.83;84.83;100711.53;5002743;28;20030;-65
2022/11/09 07:29:12;;;;;;;10.88;1.73;;;;;;;12.86;84.48;100713.28;5001830;28;20033;-65
2022/11/09 07:31:37;;;;;;;8.98;1.75;;;;;;;12.87;84.81;100715.06;5003805;28;20033;-66
2022/11/09 07:34:03;;;;;;;8.85;1.70;;;;;;;12.83;85.02;100711.53;5001156;28;20148;-66
2022/11/09 07:36:30;;;;;;;10.60;1.67;;;;;;;12.86;84.43;100710.72;5004015;28;20391;-66
2022/11/09 07:38:56;;;;;;;11.60;2.08;;;;;;;12.87;84.53;100712.47;4999599;28;20073;-66
2022/11/09 07:41:21;;;;;;;10.23;1.77;;;;;;;12.88;84.44;100711.63;4999613;28;20168;-66
2022/11/09 07:43:47;;;;;;;8.55;1.90;;;;;;;12.86;84.52;100716.78;5002023;28;20040;-66
2022/11/09 07:46:12;;;;;;;9.07;1.67;;;;;;;12.85;84.28;100715.00;5000130;28;20765;-66
2022/11/09 07:48:37;;;;;;;9.32;1.77;;;;;;;12.87;84.24;100715.94;4981621;28;20073;-66
2022/11/09 07:51:03;;;;;;;11.70;2.00;;;;;;;12.87;84.37;100713.34;4999421;28;20060;-66
2022/11/09 07:53:29;;;;;;;11.35;1.85;;;;;;;12.89;84.34;100721.09;5001865;28;20026;-66
2022/11/09 07:55:58;;;;;;;7.10;1.83;;;;;;;12.91;84.35;100728.88;5001512;28;20038;-66
2022/11/09 07:58:24;;;;;;;9.43;2.20;;;;;;;12.90;84.20;100728.00;5001642;28;20076;-66
2022/11/09 08:00:50;;;;;;;11.55;2.55;;;;;;;12.86;84.18;100724.50;5000913;28;20030;-66
2022/11/09 08:03:17;;;;;;;10.77;2.30;;;;;;;12.96;84.29;100727.22;5004558;28;20113;-66
2022/11/09 08:05:43;;;;;;;9.52;1.90;;;;;;;12.96;83.94;100735.84;5003798;28;20752;-66
2022/11/09 08:08:10;;;;;;;10.35;2.45;;;;;;;12.93;84.38;100734.94;4987033;28;20030;-66
2022/11/09 08:10:36;;;;;;;10.07;2.03;;;;;;;12.92;84.07;100740.91;5001041;28;20026;-66
2022/11/09 08:13:05;;;;;;;9.60;1.83;;;;;;;12.92;84.34;100744.38;5002241;28;20036;-66
2022/11/09 08:15:31;;;;;;;12.02;1.83;;;;;;;12.92;84.27;100746.06;5001249;28;20080;-66
2022/11/09 08:18:01;;;;;;;14.88;2.25;;;;;;;12.98;84.71;100741.88;4999606;28;20038;-66
2022/11/09 08:20:28;;;;;;;11.18;1.85;;;;;;;12.97;84.27;100747.03;4998950;28;20030;-66
2022/11/09 08:22:53;;;;;;;10.20;1.98;;;;;;;12.98;84.25;100746.19;5004332;28;20068;-66
2022/11/09 08:25:19;;;;;;;8.60;1.60;;;;;;;13.03;84.20;100762.63;5010456;28;20049;-66
2022/11/09 08:27:44;;;;;;;9.85;2.17;;;;;;;13.00;84.14;100754.84;5004521;28;20084;-66
2022/11/09 08:30:15;;;;;;;13.15;2.00;;;;;;;13.05;84.41;100763.53;5001446;28;20030;-64
2022/11/09 08:32:42;;;;;;;10.02;1.70;;;;;;;13.07;84.16;100769.56;5003828;28;20030;-65
2022/11/09 08:35:09;;;;;;;9.25;1.70;;;;;;;13.08;84.27;100771.31;4978183;28;20371;-65
2022/11/09 08:37:36;;;;;;;7.60;1.70;;;;;;;13.13;84.02;100774.84;4995009;28;20105;-64
2022/11/09 08:40:01;;;;;;;7.13;2.15;;;;;;;13.15;84.14;100779.16;5006096;28;20124;-65
2022/11/09 08:42:27;;;;;;;13.45;2.30;;;;;;;13.20;83.69;100779.25;5001029;28;20113;-64
2022/11/09 08:44:52;;;;;;;9.38;1.85;;;;;;;13.18;84.50;100764.59;4999564;28;20382;-65
2022/11/09 08:47:17;;;;;;;7.90;1.50;;;;;;;13.22;84.54;100774.13;5002720;28;20153;-65
2022/11/09 08:49:43;;;;;;;8.98;1.67;;;;;;;13.26;83.80;100778.50;4986612;28;20026;-65
2022/11/09 08:52:09;;;;;;;10.68;2.72;;;;;;;13.28;83.42;100782.84;4987821;28;20168;-65
2022/11/09 08:54:37;;;;;;;8.25;1.90;;;;;;;13.35;83.57;100787.28;5002387;28;20370;-64
2022/11/09 08:57:02;;;;;;;13.10;2.07;;;;;;;13.34;83.32;100782.94;4999242;28;20041;-65
2022/11/09 08:59:28;;;;;;;10.18;1.73;;;;;;;13.38;82.74;100789.03;5003156;28;20043;-65
2022/11/09 09:01:53;;;;;;;12.55;2.45;;;;;;;13.37;82.85;100787.31;5001549;28;20074;-64
2022/11/09 09:04:18;;;;;;;8.90;2.00;;;;;;;13.43;82.68;100779.66;5004913;28;20034;-64
2022/11/09 09:06:44;;;;;;;10.32;2.03;;;;;;;13.41;82.85;100779.63;4992998;28;20068;-65
2022/11/09 09:09:10;;;;;;;9.77;2.33;;;;;;;13.52;82.83;100789.22;5006142;28;20128;-65
2022/11/09 09:11:35;;;;;;;9.45;2.42;;;;;;;13.57;82.67;100774.69;5001347;28;20381;-65
2022/11/09 09:14:00;;;;;;;12.75;2.10;;;;;;;13.61;81.58;100779.06;4991827;28;20409;-65
2022/11/09 09:16:26;;;;;;;9.25;1.80;;;;;;;13.64;81.05;100779.94;4996035;28;20144;-65
2022/11/09 09:18:51;;;;;;;9.02;1.65;;;;;;;13.69;81.42;100787.75;4997294;28;20038;-65
2022/11/09 09:21:16;;;;;;;11.98;2.10;;;;;;;13.75;81.02;100785.25;4993486;28;20038;-65
2022/11/09 09:23:42;;;;;;;8.88;2.10;;;;;;;13.79;81.19;100793.94;4997557;28;20041;-64
2022/11/09 09:26:07;;;;;;;8.90;1.70;;;;;;;13.83;80.96;100783.69;4999148;28;20037;-64
2022/11/09 09:28:33;;;;;;;7.75;1.90;;;;;;;13.84;80.31;100784.53;4992817;28;20037;-64
2022/11/09 09:31:00;;;;;;;8.77;1.88;;;;;;;13.85;80.54;100791.44;4996185;28;20524;-65
2022/11/09 09:33:25;;;;;;;10.63;2.20;;;;;;;13.87;80.07;100798.34;5001804;28;20033;-65
2022/11/09 09:35:51;;;;;;;10.32;2.15;;;;;;;13.87;79.63;100800.06;4997999;28;20022;-64
2022/11/09 09:38:17;;;;;;;12.90;2.00;;;;;;;13.90;79.39;100805.31;4992045;28;20030;-64
2022/11/09 09:41:09;;;;;;;8.52;1.98;;;;;;;13.93;79.14;100805.31;4999250;28;20113;-64
2022/11/09 09:43:43;;;;;;;13.70;2.03;;;;;;;13.95;79.37;100812.28;4998161;28;20037;-64
2022/11/09 09:46:24;;;;;;;10.55;2.00;;;;;;;13.97;78.93;100795.91;5007693;28;20037;-65
2022/11/09 09:48:55;;;;;;;12.45;2.05;;;;;;;14.04;78.95;100811.50;5008355;28;20040;-64
2022/11/09 09:51:33;;;;;;;10.68;2.00;;;;;;;14.06;79.08;100807.22;5003327;28;20056;-65
2022/11/09 09:54:13;;;;;;;9.43;1.63;;;;;;;14.08;78.73;100807.25;5003463;28;20062;-65
2022/11/09 09:56:43;;;;;;;10.40;1.90;;;;;;;14.11;78.06;100825.38;5004445;28;20034;-64
2022/11/09 09:59:08;;;;;;;;;;;;;;;14.19;78.42;100819.44;5006534;28;20473;-64
2022/11/09 10:01:39;;;;;;;14.40;2.08;;;;;;;14.18;78.01;100828.06;5002482;28;19920;-64
2022/11/09 10:04:17;;;;;;;9.02;1.73;;;;;;;14.18;78.01;100829.78;5004320;28;20045;-64
2022/11/09 10:07:14;;;;;;;9.57;2.33;;;;;;;14.21;77.78;100829.84;5001507;28;20105;-64
2022/11/09 10:09:59;;;;;;;10.73;1.98;;;;;;;14.23;77.86;100829.00;5005926;28;20029;-64
2022/11/09 10:12:46;;;;;;;8.10;1.80;;;;;;;14.26;77.64;100815.25;5000217;28;20129;-64
2022/11/09 10:15:19;;;;;;;10.82;1.80;;;;;;;14.34;77.20;100841.19;5006468;28;20033;-64
2022/11/09 10:18:06;;;;;;;10.65;1.65;;;;;;;14.33;76.36;100830.00;5008612;28;20439;-64
2022/11/09 10:20:49;;;;;;;7.28;1.73;;;;;;;14.39;75.98;100831.78;5000439;28;20112;-64
2022/11/09 10:23:33;;;;;;;12.82;2.10;;;;;;;14.43;75.62;100837.00;5000785;28;20034;-64
2022/11/09 10:26:11;;;;;;;10.35;1.90;;;;;;;14.47;76.00;100833.63;4996229;28;20117;-64
2022/11/09 10:28:40;;;;;;;8.32;1.50;;;;;;;14.47;74.36;100830.19;5005324;28;20477;-64
2022/11/09 10:31:16;;;;;;;8.98;1.70;;;;;;;14.52;74.42;100832.81;4995296;28;20018;-64
2022/11/09 10:33:45;;;;;;;9.98;1.70;;;;;;;14.53;74.13;100838.00;5007476;28;20038;-64
2022/11/09 10:36:43;;;;;;;9.52;1.60;;;;;;;14.57;74.70;100839.78;4996936;28;20037;-64
2022/11/09 10:39:12;;;;;;;8.40;1.80;;;;;;;14.54;74.30;100838.88;4997993;28;20076;-64
2022/11/09 10:41:39;;;;;;;9.40;1.60;;;;;;;14.52;74.02;100849.22;4984861;28;20293;-63
2022/11/09 10:44:14;;;;;;;8.82;1.77;;;;;;;14.49;74.08;100839.69;5004679;28;20101;-64
2022/11/09 10:47:15;;;;;;;10.18;2.13;;;;;;;14.57;75.27;100849.28;5005510;28;20540;-64
2022/11/09 10:49:41;;;;;;;8.20;1.83;;;;;;;14.56;74.17;100850.09;5002763;28;20089;-64
2022/11/09 10:52:28;;;;;;;11.73;1.98;;;;;;;14.62;74.64;100858.84;4996789;28;20050;-63
2022/11/09 10:55:19;;;;;;;8.90;1.90;;;;;;;14.63;74.97;100854.53;5001834;28;20037;-64
2022/11/09 10:58:00;;;;;;;9.85;1.67;;;;;;;14.61;74.46;100854.47;5003645;28;20148;-64
2022/11/09 11:00:26;;;;;;;10.35;1.70;;;;;;;14.55;73.80;100850.97;4978971;28;20057;-63
2022/11/09 11:02:53;;;;;;;11.68;1.90;;;;;;;14.52;73.06;100859.56;4963009;28;20548;-64
2022/11/09 11:05:20;;;;;;;10.00;2.05;;;;;;;14.52;73.37;100862.16;5001252;28;20822;-64
2022/11/09 11:07:45;;;;;;;6.63;1.48;;;;;;;14.46;72.81;100859.47;5002096;28;20068;-64
2022/11/09 11:10:14;;;;;;;7.72;1.65;;;;;;;14.52;73.00;100861.28;4984390;28;20050;-64
2022/11/09 11:12:44;;;;;;;9.33;1.93;;;;;;;14.51;73.04;100856.97;5002395;28;20053;-64
2022/11/09 11:15:31;;;;;;;10.77;1.80;;;;;;;14.59;73.23;100860.50;5002009;28;20727;-62
2022/11/09 11:18:02;;;;;;;13.68;1.55;;;;;;;14.57;72.26;100870.84;5004572;28;20029;-63
2022/11/09 11:20:33;;;;;;;5.28;1.30;;;;;;;14.56;72.00;100865.63;5002033;28;20434;-64
2022/11/09 11:23:12;;;;;;;12.55;2.33;;;;;;;14.61;72.48;100862.25;5004012;28;20061;-64
2022/11/09 11:25:53;;;;;;;9.48;1.60;;;;;;;14.65;71.88;100860.56;5000280;28;20029;-64
2022/11/09 11:28:41;;;;;;;9.77;1.60;;;;;;;14.64;72.09;100861.44;4998954;28;20030;-64